KDGW/DGW METAR and TAF weather

Enter ICAO airport designator
Station Type Date Time Source
KDGW METAR 2022/08/16 19:53 UTC NOAA

KDGW 161953Z AUTO VRB04G14KT 10SM CLR 29/07 A3023 RMK AO2 SLP177 T02890072


Station Type Date Time Source
KDGW Decoded METAR 2022/08/16 19:53 UTC NOAA

DOUGLAS CONVERSE COUNTY, WY, United States (KDGW) 42-48N 105-23W 1499M
Aug 16, 2022 - 03:53 PM EDT / 2022.08.16 1953 UTC
Wind: Variable at 5 MPH (4 KT) gusting to 16 MPH (14 KT):0
Visibility: 10 mile(s):0
Sky conditions: clear
Temperature: 84.0 F (28.9 C)
Dew Point: 45.0 F (7.2 C)
Relative Humidity: 25%
Pressure (altimeter): 30.23 in. Hg (1023 hPa)
ob: KDGW 161953Z AUTO VRB04G14KT 10SM CLR 29/07 A3023 RMK AO2 SLP177 T02890072
cycle: 20

Station Type Date Time Source
KDGW TAF UTC NOAA

Error!

Example: see airport list